sensor_id;sensor_type;location;lat;lon;timestamp;P1;durP1;ratioP1;P2;durP2;ratioP2
19830;SDS011;10076;52.008;4.708;2023-05-20T00:01:25;4.73;;;2.30;;
19830;SDS011;10076;52.008;4.708;2023-05-20T00:03:51;5.20;;;2.63;;
19830;SDS011;10076;52.008;4.708;2023-05-20T00:06:16;7.93;;;2.77;;
19830;SDS011;10076;52.008;4.708;2023-05-20T00:08:41;8.80;;;2.43;;
19830;SDS011;10076;52.008;4.708;2023-05-20T00:11:06;6.53;;;2.43;;
19830;SDS011;10076;52.008;4.708;2023-05-20T00:13:32;5.70;;;2.37;;
19830;SDS011;10076;52.008;4.708;2023-05-20T00:15:59;5.33;;;2.40;;
19830;SDS011;10076;52.008;4.708;2023-05-20T00:18:25;5.30;;;2.33;;
19830;SDS011;10076;52.008;4.708;2023-05-20T00:20:50;4.37;;;2.20;;
19830;SDS011;10076;52.008;4.708;2023-05-20T00:23:17;4.80;;;3.00;;
19830;SDS011;10076;52.008;4.708;2023-05-20T00:25:42;10.03;;;2.57;;
19830;SDS011;10076;52.008;4.708;2023-05-20T00:28:07;5.47;;;2.50;;
19830;SDS011;10076;52.008;4.708;2023-05-20T00:30:33;6.17;;;2.30;;
19830;SDS011;10076;52.008;4.708;2023-05-20T00:32:58;3.93;;;2.43;;
19830;SDS011;10076;52.008;4.708;2023-05-20T00:35:23;5.03;;;2.33;;
19830;SDS011;10076;52.008;4.708;2023-05-20T00:37:48;7.53;;;3.00;;
19830;SDS011;10076;52.008;4.708;2023-05-20T00:40:14;4.83;;;2.70;;
19830;SDS011;10076;52.008;4.708;2023-05-20T00:42:40;6.87;;;2.73;;
19830;SDS011;10076;52.008;4.708;2023-05-20T00:45:05;5.10;;;2.43;;
19830;SDS011;10076;52.008;4.708;2023-05-20T00:47:34;2.93;;;1.97;;
19830;SDS011;10076;52.008;4.708;2023-05-20T00:50:00;3.67;;;2.40;;
19830;SDS011;10076;52.008;4.708;2023-05-20T00:52:28;5.10;;;2.63;;
19830;SDS011;10076;52.008;4.708;2023-05-20T00:54:55;4.87;;;2.50;;
19830;SDS011;10076;52.008;4.708;2023-05-20T00:57:22;3.20;;;2.57;;
19830;SDS011;10076;52.008;4.708;2023-05-20T00:59:47;5.43;;;2.83;;
19830;SDS011;10076;52.008;4.708;2023-05-20T01:02:12;6.40;;;2.70;;
19830;SDS011;10076;52.008;4.708;2023-05-20T01:04:38;4.17;;;2.47;;
19830;SDS011;10076;52.008;4.708;2023-05-20T01:07:04;4.47;;;2.27;;
19830;SDS011;10076;52.008;4.708;2023-05-20T01:09:30;3.43;;;2.17;;
19830;SDS011;10076;52.008;4.708;2023-05-20T01:12:17;6.93;;;2.60;;
19830;SDS011;10076;52.008;4.708;2023-05-20T01:14:48;4.67;;;2.90;;
19830;SDS011;10076;52.008;4.708;2023-05-20T01:17:20;8.50;;;2.80;;
19830;SDS011;10076;52.008;4.708;2023-05-20T01:19:50;6.23;;;2.80;;
19830;SDS011;10076;52.008;4.708;2023-05-20T01:24:48;3.80;;;2.40;;
19830;SDS011;10076;52.008;4.708;2023-05-20T01:27:13;6.27;;;2.77;;
19830;SDS011;10076;52.008;4.708;2023-05-20T01:29:39;4.57;;;2.70;;
19830;SDS011;10076;52.008;4.708;2023-05-20T01:32:14;5.50;;;2.80;;
19830;SDS011;10076;52.008;4.708;2023-05-20T01:34:42;6.60;;;2.47;;
19830;SDS011;10076;52.008;4.708;2023-05-20T01:37:09;2.50;;;2.00;;
19830;SDS011;10076;52.008;4.708;2023-05-20T01:39:35;3.87;;;2.00;;
19830;SDS011;10076;52.008;4.708;2023-05-20T01:42:04;7.40;;;2.40;;
19830;SDS011;10076;52.008;4.708;2023-05-20T01:44:30;5.10;;;2.47;;
19830;SDS011;10076;52.008;4.708;2023-05-20T01:46:55;4.20;;;2.57;;
19830;SDS011;10076;52.008;4.708;2023-05-20T01:49:20;6.43;;;2.60;;
19830;SDS011;10076;52.008;4.708;2023-05-20T01:51:46;5.33;;;2.43;;
19830;SDS011;10076;52.008;4.708;2023-05-20T01:54:11;5.73;;;3.00;;
19830;SDS011;10076;52.008;4.708;2023-05-20T01:56:36;5.23;;;2.97;;
19830;SDS011;10076;52.008;4.708;2023-05-20T01:59:02;4.73;;;2.70;;
19830;SDS011;10076;52.008;4.708;2023-05-20T02:01:27;4.07;;;2.70;;
19830;SDS011;10076;52.008;4.708;2023-05-20T02:03:52;6.73;;;2.83;;
19830;SDS011;10076;52.008;4.708;2023-05-20T02:06:17;4.90;;;2.63;;
19830;SDS011;10076;52.008;4.708;2023-05-20T02:08:43;4.87;;;2.50;;
19830;SDS011;10076;52.008;4.708;2023-05-20T02:11:08;6.70;;;3.10;;
19830;SDS011;10076;52.008;4.708;2023-05-20T02:13:33;4.70;;;2.63;;
19830;SDS011;10076;52.008;4.708;2023-05-20T02:15:58;3.00;;;2.40;;
19830;SDS011;10076;52.008;4.708;2023-05-20T02:18:24;6.73;;;2.90;;
19830;SDS011;10076;52.008;4.708;2023-05-20T02:20:50;6.97;;;2.80;;
19830;SDS011;10076;52.008;4.708;2023-05-20T02:23:16;4.40;;;3.13;;
19830;SDS011;10076;52.008;4.708;2023-05-20T02:25:42;4.57;;;2.50;;
19830;SDS011;10076;52.008;4.708;2023-05-20T02:28:07;3.93;;;2.80;;
19830;SDS011;10076;52.008;4.708;2023-05-20T02:30:34;5.73;;;2.97;;
19830;SDS011;10076;52.008;4.708;2023-05-20T02:33:01;5.53;;;2.70;;
19830;SDS011;10076;52.008;4.708;2023-05-20T02:35:26;4.43;;;2.60;;
19830;SDS011;10076;52.008;4.708;2023-05-20T02:37:51;5.50;;;2.77;;
19830;SDS011;10076;52.008;4.708;2023-05-20T02:40:17;6.47;;;2.87;;
19830;SDS011;10076;52.008;4.708;2023-05-20T02:42:42;8.33;;;3.30;;
19830;SDS011;10076;52.008;4.708;2023-05-20T02:45:07;6.90;;;2.57;;
19830;SDS011;10076;52.008;4.708;2023-05-20T02:47:33;5.13;;;2.90;;
19830;SDS011;10076;52.008;4.708;2023-05-20T02:49:58;5.10;;;2.83;;
19830;SDS011;10076;52.008;4.708;2023-05-20T02:52:23;5.97;;;3.00;;
19830;SDS011;10076;52.008;4.708;2023-05-20T02:54:49;7.93;;;2.97;;
19830;SDS011;10076;52.008;4.708;2023-05-20T02:57:14;5.97;;;3.20;;
19830;SDS011;10076;52.008;4.708;2023-05-20T02:59:40;6.10;;;2.30;;
19830;SDS011;10076;52.008;4.708;2023-05-20T03:02:06;5.80;;;2.57;;
19830;SDS011;10076;52.008;4.708;2023-05-20T03:04:31;5.93;;;3.03;;
19830;SDS011;10076;52.008;4.708;2023-05-20T03:06:56;6.93;;;2.90;;
19830;SDS011;10076;52.008;4.708;2023-05-20T03:09:22;8.07;;;2.77;;
19830;SDS011;10076;52.008;4.708;2023-05-20T03:11:49;7.83;;;2.47;;
19830;SDS011;10076;52.008;4.708;2023-05-20T03:14:14;8.50;;;3.23;;
19830;SDS011;10076;52.008;4.708;2023-05-20T03:16:40;3.73;;;2.67;;
19830;SDS011;10076;52.008;4.708;2023-05-20T03:19:05;6.37;;;2.50;;
19830;SDS011;10076;52.008;4.708;2023-05-20T03:21:30;6.83;;;2.93;;
19830;SDS011;10076;52.008;4.708;2023-05-20T03:23:56;9.00;;;2.97;;
19830;SDS011;10076;52.008;4.708;2023-05-20T03:26:21;9.13;;;3.03;;
19830;SDS011;10076;52.008;4.708;2023-05-20T03:28:47;9.37;;;3.53;;
19830;SDS011;10076;52.008;4.708;2023-05-20T03:31:12;6.47;;;3.27;;
19830;SDS011;10076;52.008;4.708;2023-05-20T03:33:37;7.20;;;2.77;;
19830;SDS011;10076;52.008;4.708;2023-05-20T03:36:03;5.90;;;2.73;;
19830;SDS011;10076;52.008;4.708;2023-05-20T03:38:29;4.53;;;2.53;;
19830;SDS011;10076;52.008;4.708;2023-05-20T03:40:54;5.90;;;2.60;;
19830;SDS011;10076;52.008;4.708;2023-05-20T03:43:19;5.93;;;2.77;;
19830;SDS011;10076;52.008;4.708;2023-05-20T03:45:45;7.57;;;3.30;;
19830;SDS011;10076;52.008;4.708;2023-05-20T03:48:10;4.70;;;2.53;;
19830;SDS011;10076;52.008;4.708;2023-05-20T03:50:35;4.53;;;3.00;;
19830;SDS011;10076;52.008;4.708;2023-05-20T03:53:01;4.97;;;3.13;;
19830;SDS011;10076;52.008;4.708;2023-05-20T03:55:26;5.50;;;3.20;;
19830;SDS011;10076;52.008;4.708;2023-05-20T03:57:51;6.07;;;2.93;;
19830;SDS011;10076;52.008;4.708;2023-05-20T04:00:17;6.97;;;3.17;;
19830;SDS011;10076;52.008;4.708;2023-05-20T04:02:42;5.20;;;2.73;;
19830;SDS011;10076;52.008;4.708;2023-05-20T04:05:08;7.37;;;2.87;;
19830;SDS011;10076;52.008;4.708;2023-05-20T04:07:34;5.40;;;2.90;;
19830;SDS011;10076;52.008;4.708;2023-05-20T04:10:00;5.70;;;2.77;;
19830;SDS011;10076;52.008;4.708;2023-05-20T04:12:25;6.43;;;2.93;;
19830;SDS011;10076;52.008;4.708;2023-05-20T04:14:55;7.33;;;2.40;;
19830;SDS011;10076;52.008;4.708;2023-05-20T04:17:25;6.23;;;2.80;;
19830;SDS011;10076;52.008;4.708;2023-05-20T04:19:54;6.13;;;2.87;;
19830;SDS011;10076;52.008;4.708;2023-05-20T04:22:23;4.43;;;2.50;;
19830;SDS011;10076;52.008;4.708;2023-05-20T04:24:49;5.90;;;2.63;;
19830;SDS011;10076;52.008;4.708;2023-05-20T04:27:14;5.97;;;2.50;;
19830;SDS011;10076;52.008;4.708;2023-05-20T04:29:40;5.60;;;2.80;;
19830;SDS011;10076;52.008;4.708;2023-05-20T04:32:11;7.90;;;2.80;;
19830;SDS011;10076;52.008;4.708;2023-05-20T04:34:37;3.80;;;2.33;;
19830;SDS011;10076;52.008;4.708;2023-05-20T04:37:03;4.43;;;2.37;;
19830;SDS011;10076;52.008;4.708;2023-05-20T04:39:28;4.00;;;2.73;;
19830;SDS011;10076;52.008;4.708;2023-05-20T04:41:54;5.00;;;2.53;;
19830;SDS011;10076;52.008;4.708;2023-05-20T04:44:19;4.20;;;2.87;;
19830;SDS011;10076;52.008;4.708;2023-05-20T04:46:44;4.93;;;2.47;;
19830;SDS011;10076;52.008;4.708;2023-05-20T04:49:10;5.27;;;2.63;;
19830;SDS011;10076;52.008;4.708;2023-05-20T04:51:35;6.23;;;2.70;;
19830;SDS011;10076;52.008;4.708;2023-05-20T04:54:01;6.00;;;2.40;;
19830;SDS011;10076;52.008;4.708;2023-05-20T04:56:26;5.27;;;2.70;;
19830;SDS011;10076;52.008;4.708;2023-05-20T04:58:51;6.43;;;2.60;;
19830;SDS011;10076;52.008;4.708;2023-05-20T05:01:17;7.37;;;2.80;;
19830;SDS011;10076;52.008;4.708;2023-05-20T05:03:42;4.87;;;2.30;;
19830;SDS011;10076;52.008;4.708;2023-05-20T05:06:07;4.03;;;2.30;;
19830;SDS011;10076;52.008;4.708;2023-05-20T05:08:33;8.03;;;3.07;;
19830;SDS011;10076;52.008;4.708;2023-05-20T05:10:58;5.47;;;2.50;;
19830;SDS011;10076;52.008;4.708;2023-05-20T05:13:23;3.77;;;2.33;;
19830;SDS011;10076;52.008;4.708;2023-05-20T05:15:56;5.53;;;2.63;;
19830;SDS011;10076;52.008;4.708;2023-05-20T05:18:25;4.30;;;2.50;;
19830;SDS011;10076;52.008;4.708;2023-05-20T05:20:57;5.50;;;3.00;;
19830;SDS011;10076;52.008;4.708;2023-05-20T05:23:24;6.87;;;2.57;;
19830;SDS011;10076;52.008;4.708;2023-05-20T05:25:50;4.73;;;2.57;;
19830;SDS011;10076;52.008;4.708;2023-05-20T05:28:16;5.93;;;2.90;;
19830;SDS011;10076;52.008;4.708;2023-05-20T05:30:41;4.37;;;2.50;;
19830;SDS011;10076;52.008;4.708;2023-05-20T05:33:07;3.97;;;2.57;;
19830;SDS011;10076;52.008;4.708;2023-05-20T05:35:32;4.73;;;2.70;;
19830;SDS011;10076;52.008;4.708;2023-05-20T05:37:57;5.20;;;2.63;;
19830;SDS011;10076;52.008;4.708;2023-05-20T05:40:22;4.87;;;2.50;;
19830;SDS011;10076;52.008;4.708;2023-05-20T05:42:48;7.57;;;2.90;;
19830;SDS011;10076;52.008;4.708;2023-05-20T05:45:13;4.20;;;2.50;;
19830;SDS011;10076;52.008;4.708;2023-05-20T05:47:38;5.57;;;2.63;;
19830;SDS011;10076;52.008;4.708;2023-05-20T05:50:04;4.50;;;2.90;;
19830;SDS011;10076;52.008;4.708;2023-05-20T05:52:30;7.93;;;3.50;;
19830;SDS011;10076;52.008;4.708;2023-05-20T05:54:55;7.43;;;2.87;;
19830;SDS011;10076;52.008;4.708;2023-05-20T05:57:20;4.82;;;2.47;;
19830;SDS011;10076;52.008;4.708;2023-05-20T05:59:45;6.33;;;2.97;;
19830;SDS011;10076;52.008;4.708;2023-05-20T06:02:11;3.97;;;2.77;;
19830;SDS011;10076;52.008;4.708;2023-05-20T06:04:38;7.78;;;2.75;;
19830;SDS011;10076;52.008;4.708;2023-05-20T06:07:03;8.03;;;2.43;;
19830;SDS011;10076;52.008;4.708;2023-05-20T06:09:29;4.65;;;3.30;;
19830;SDS011;10076;52.008;4.708;2023-05-20T06:11:54;5.85;;;3.15;;
19830;SDS011;10076;52.008;4.708;2023-05-20T06:14:20;6.72;;;2.83;;
19830;SDS011;10076;52.008;4.708;2023-05-20T06:16:45;4.97;;;2.67;;
19830;SDS011;10076;52.008;4.708;2023-05-20T06:19:10;6.53;;;2.70;;
19830;SDS011;10076;52.008;4.708;2023-05-20T06:21:36;5.27;;;2.67;;
19830;SDS011;10076;52.008;4.708;2023-05-20T06:24:01;5.43;;;3.10;;
19830;SDS011;10076;52.008;4.708;2023-05-20T06:26:26;6.13;;;2.85;;
19830;SDS011;10076;52.008;4.708;2023-05-20T06:28:52;5.93;;;2.45;;
19830;SDS011;10076;52.008;4.708;2023-05-20T06:31:17;4.00;;;2.75;;
19830;SDS011;10076;52.008;4.708;2023-05-20T06:33:42;4.20;;;2.78;;
19830;SDS011;10076;52.008;4.708;2023-05-20T06:36:08;4.07;;;2.80;;
19830;SDS011;10076;52.008;4.708;2023-05-20T06:38:33;5.10;;;2.63;;
19830;SDS011;10076;52.008;4.708;2023-05-20T06:40:58;4.43;;;2.65;;
19830;SDS011;10076;52.008;4.708;2023-05-20T06:43:23;4.50;;;2.65;;
19830;SDS011;10076;52.008;4.708;2023-05-20T06:45:49;4.82;;;2.92;;
19830;SDS011;10076;52.008;4.708;2023-05-20T06:48:14;5.10;;;2.40;;
19830;SDS011;10076;52.008;4.708;2023-05-20T06:50:40;5.18;;;2.95;;
19830;SDS011;10076;52.008;4.708;2023-05-20T06:53:05;6.80;;;3.13;;
19830;SDS011;10076;52.008;4.708;2023-05-20T06:55:31;4.35;;;2.63;;
19830;SDS011;10076;52.008;4.708;2023-05-20T06:57:56;5.15;;;2.92;;
19830;SDS011;10076;52.008;4.708;2023-05-20T07:00:21;4.47;;;2.75;;
19830;SDS011;10076;52.008;4.708;2023-05-20T07:02:47;8.85;;;3.28;;
19830;SDS011;10076;52.008;4.708;2023-05-20T07:05:12;5.63;;;3.05;;
19830;SDS011;10076;52.008;4.708;2023-05-20T07:07:38;3.85;;;2.90;;
19830;SDS011;10076;52.008;4.708;2023-05-20T07:10:03;5.68;;;2.95;;
19830;SDS011;10076;52.008;4.708;2023-05-20T07:12:30;6.28;;;2.95;;
19830;SDS011;10076;52.008;4.708;2023-05-20T07:14:56;4.68;;;3.03;;
19830;SDS011;10076;52.008;4.708;2023-05-20T07:17:22;5.47;;;2.70;;
19830;SDS011;10076;52.008;4.708;2023-05-20T07:19:48;8.68;;;2.85;;
19830;SDS011;10076;52.008;4.708;2023-05-20T07:22:13;4.53;;;2.90;;
19830;SDS011;10076;52.008;4.708;2023-05-20T07:24:39;5.00;;;2.60;;
19830;SDS011;10076;52.008;4.708;2023-05-20T07:27:04;4.13;;;2.80;;
19830;SDS011;10076;52.008;4.708;2023-05-20T07:29:30;3.88;;;2.97;;
19830;SDS011;10076;52.008;4.708;2023-05-20T07:31:55;7.35;;;3.13;;
19830;SDS011;10076;52.008;4.708;2023-05-20T07:34:20;6.03;;;2.95;;
19830;SDS011;10076;52.008;4.708;2023-05-20T07:36:46;4.75;;;2.67;;
19830;SDS011;10076;52.008;4.708;2023-05-20T07:39:12;5.07;;;2.67;;
19830;SDS011;10076;52.008;4.708;2023-05-20T07:41:39;3.40;;;2.70;;
19830;SDS011;10076;52.008;4.708;2023-05-20T07:44:05;3.40;;;2.60;;
19830;SDS011;10076;52.008;4.708;2023-05-20T07:46:33;4.28;;;2.90;;
19830;SDS011;10076;52.008;4.708;2023-05-20T07:48:58;4.10;;;2.80;;
19830;SDS011;10076;52.008;4.708;2023-05-20T07:51:23;7.68;;;3.30;;
19830;SDS011;10076;52.008;4.708;2023-05-20T07:53:49;5.82;;;3.10;;
19830;SDS011;10076;52.008;4.708;2023-05-20T07:56:15;3.92;;;2.72;;
19830;SDS011;10076;52.008;4.708;2023-05-20T07:58:40;3.67;;;2.55;;
19830;SDS011;10076;52.008;4.708;2023-05-20T08:01:06;4.72;;;3.22;;
19830;SDS011;10076;52.008;4.708;2023-05-20T08:03:33;6.63;;;3.00;;
19830;SDS011;10076;52.008;4.708;2023-05-20T08:05:59;4.18;;;2.65;;
19830;SDS011;10076;52.008;4.708;2023-05-20T08:08:24;5.32;;;2.83;;
19830;SDS011;10076;52.008;4.708;2023-05-20T08:10:49;7.97;;;3.13;;
19830;SDS011;10076;52.008;4.708;2023-05-20T08:13:16;4.28;;;3.05;;
19830;SDS011;10076;52.008;4.708;2023-05-20T08:15:41;4.40;;;2.72;;
19830;SDS011;10076;52.008;4.708;2023-05-20T08:18:07;4.85;;;3.00;;
19830;SDS011;10076;52.008;4.708;2023-05-20T08:20:32;4.93;;;3.00;;
19830;SDS011;10076;52.008;4.708;2023-05-20T08:22:57;6.25;;;3.47;;
19830;SDS011;10076;52.008;4.708;2023-05-20T08:25:22;5.38;;;2.85;;
19830;SDS011;10076;52.008;4.708;2023-05-20T08:27:48;3.67;;;2.83;;
19830;SDS011;10076;52.008;4.708;2023-05-20T08:30:13;3.38;;;2.65;;
19830;SDS011;10076;52.008;4.708;2023-05-20T08:32:38;2.78;;;2.22;;
19830;SDS011;10076;52.008;4.708;2023-05-20T08:35:05;5.45;;;2.42;;
19830;SDS011;10076;52.008;4.708;2023-05-20T08:37:31;4.32;;;2.67;;
19830;SDS011;10076;52.008;4.708;2023-05-20T08:39:56;3.53;;;2.40;;
19830;SDS011;10076;52.008;4.708;2023-05-20T08:42:22;6.65;;;3.00;;
19830;SDS011;10076;52.008;4.708;2023-05-20T08:44:49;4.05;;;2.60;;
19830;SDS011;10076;52.008;4.708;2023-05-20T08:47:16;3.22;;;2.75;;
19830;SDS011;10076;52.008;4.708;2023-05-20T08:49:42;3.60;;;2.42;;
19830;SDS011;10076;52.008;4.708;2023-05-20T08:52:07;5.28;;;2.67;;
19830;SDS011;10076;52.008;4.708;2023-05-20T08:54:44;3.45;;;2.58;;
19830;SDS011;10076;52.008;4.708;2023-05-20T08:57:12;6.40;;;2.70;;
19830;SDS011;10076;52.008;4.708;2023-05-20T08:59:40;3.13;;;2.30;;
19830;SDS011;10076;52.008;4.708;2023-05-20T09:02:07;3.60;;;2.30;;
19830;SDS011;10076;52.008;4.708;2023-05-20T09:04:33;3.58;;;2.20;;
19830;SDS011;10076;52.008;4.708;2023-05-20T09:06:58;4.43;;;2.22;;
19830;SDS011;10076;52.008;4.708;2023-05-20T09:09:23;2.33;;;1.52;;
19830;SDS011;10076;52.008;4.708;2023-05-20T09:11:49;2.03;;;1.70;;
19830;SDS011;10076;52.008;4.708;2023-05-20T09:14:14;3.35;;;2.00;;
19830;SDS011;10076;52.008;4.708;2023-05-20T09:16:40;2.97;;;1.77;;
19830;SDS011;10076;52.008;4.708;2023-05-20T09:19:05;3.95;;;1.92;;
19830;SDS011;10076;52.008;4.708;2023-05-20T09:21:31;4.38;;;2.15;;
19830;SDS011;10076;52.008;4.708;2023-05-20T09:23:57;5.65;;;2.30;;
19830;SDS011;10076;52.008;4.708;2023-05-20T09:26:26;1.70;;;1.55;;
19830;SDS011;10076;52.008;4.708;2023-05-20T09:28:54;2.92;;;1.85;;
19830;SDS011;10076;52.008;4.708;2023-05-20T09:31:41;2.22;;;1.55;;
19830;SDS011;10076;52.008;4.708;2023-05-20T09:34:06;2.28;;;1.60;;
19830;SDS011;10076;52.008;4.708;2023-05-20T09:36:32;2.15;;;1.42;;
19830;SDS011;10076;52.008;4.708;2023-05-20T09:39:00;3.10;;;1.98;;
19830;SDS011;10076;52.008;4.708;2023-05-20T09:41:32;2.65;;;1.70;;
19830;SDS011;10076;52.008;4.708;2023-05-20T09:44:02;2.25;;;1.50;;
19830;SDS011;10076;52.008;4.708;2023-05-20T09:46:28;2.97;;;1.80;;
19830;SDS011;10076;52.008;4.708;2023-05-20T09:48:55;2.17;;;1.70;;
19830;SDS011;10076;52.008;4.708;2023-05-20T09:51:21;2.38;;;1.42;;
19830;SDS011;10076;52.008;4.708;2023-05-20T09:53:47;2.92;;;1.75;;
19830;SDS011;10076;52.008;4.708;2023-05-20T09:56:14;3.80;;;2.50;;
19830;SDS011;10076;52.008;4.708;2023-05-20T09:58:41;6.40;;;2.47;;
19830;SDS011;10076;52.008;4.708;2023-05-20T10:01:09;2.03;;;1.73;;
19830;SDS011;10076;52.008;4.708;2023-05-20T10:03:34;2.85;;;1.67;;
19830;SDS011;10076;52.008;4.708;2023-05-20T10:06:03;3.22;;;1.83;;
19830;SDS011;10076;52.008;4.708;2023-05-20T10:11:24;4.57;;;1.65;;
19830;SDS011;10076;52.008;4.708;2023-05-20T10:18:55;3.40;;;1.95;;
19830;SDS011;10076;52.008;4.708;2023-05-20T10:21:28;1.52;;;1.40;;
19830;SDS011;10076;52.008;4.708;2023-05-20T10:24:04;2.63;;;1.40;;
19830;SDS011;10076;52.008;4.708;2023-05-20T10:26:37;2.05;;;1.73;;
19830;SDS011;10076;52.008;4.708;2023-05-20T10:29:15;2.65;;;1.60;;
19830;SDS011;10076;52.008;4.708;2023-05-20T10:31:47;2.17;;;1.40;;
19830;SDS011;10076;52.008;4.708;2023-05-20T10:34:14;3.42;;;1.70;;
19830;SDS011;10076;52.008;4.708;2023-05-20T10:36:44;1.92;;;1.50;;
19830;SDS011;10076;52.008;4.708;2023-05-20T10:39:15;2.00;;;1.50;;
19830;SDS011;10076;52.008;4.708;2023-05-20T10:41:41;1.65;;;1.50;;
19830;SDS011;10076;52.008;4.708;2023-05-20T10:44:06;3.53;;;2.17;;
19830;SDS011;10076;52.008;4.708;2023-05-20T10:46:32;3.35;;;1.70;;
19830;SDS011;10076;52.008;4.708;2023-05-20T10:49:00;2.10;;;1.55;;
19830;SDS011;10076;52.008;4.708;2023-05-20T10:51:27;1.88;;;1.52;;
19830;SDS011;10076;52.008;4.708;2023-05-20T10:53:53;1.90;;;1.40;;
19830;SDS011;10076;52.008;4.708;2023-05-20T10:56:21;2.80;;;1.70;;
19830;SDS011;10076;52.008;4.708;2023-05-20T10:58:47;1.48;;;1.30;;
19830;SDS011;10076;52.008;4.708;2023-05-20T11:01:14;3.50;;;1.83;;
19830;SDS011;10076;52.008;4.708;2023-05-20T11:03:40;2.28;;;1.65;;
19830;SDS011;10076;52.008;4.708;2023-05-20T11:06:11;1.67;;;1.40;;
19830;SDS011;10076;52.008;4.708;2023-05-20T11:08:40;1.90;;;1.40;;
19830;SDS011;10076;52.008;4.708;2023-05-20T11:11:05;4.30;;;2.05;;
19830;SDS011;10076;52.008;4.708;2023-05-20T11:13:31;2.10;;;1.70;;
19830;SDS011;10076;52.008;4.708;2023-05-20T11:15:57;2.72;;;1.38;;
19830;SDS011;10076;52.008;4.708;2023-05-20T11:18:23;2.95;;;1.70;;
19830;SDS011;10076;52.008;4.708;2023-05-20T11:20:53;1.83;;;1.63;;
19830;SDS011;10076;52.008;4.708;2023-05-20T11:23:19;3.08;;;1.40;;
19830;SDS011;10076;52.008;4.708;2023-05-20T11:25:44;2.20;;;1.38;;
19830;SDS011;10076;52.008;4.708;2023-05-20T11:28:13;2.00;;;1.38;;
19830;SDS011;10076;52.008;4.708;2023-05-20T11:30:39;2.63;;;1.83;;
19830;SDS011;10076;52.008;4.708;2023-05-20T11:33:06;2.10;;;1.90;;
19830;SDS011;10076;52.008;4.708;2023-05-20T11:35:36;2.63;;;1.80;;
19830;SDS011;10076;52.008;4.708;2023-05-20T11:38:03;4.10;;;1.35;;
19830;SDS011;10076;52.008;4.708;2023-05-20T11:40:30;5.03;;;1.75;;
19830;SDS011;10076;52.008;4.708;2023-05-20T11:42:58;2.40;;;1.60;;
19830;SDS011;10076;52.008;4.708;2023-05-20T11:45:24;1.90;;;1.50;;
19830;SDS011;10076;52.008;4.708;2023-05-20T11:48:01;1.67;;;1.30;;
19830;SDS011;10076;52.008;4.708;2023-05-20T11:50:27;2.08;;;1.70;;
19830;SDS011;10076;52.008;4.708;2023-05-20T11:52:57;4.78;;;1.75;;
19830;SDS011;10076;52.008;4.708;2023-05-20T11:55:24;5.47;;;1.83;;
19830;SDS011;10076;52.008;4.708;2023-05-20T11:57:50;4.18;;;1.60;;
19830;SDS011;10076;52.008;4.708;2023-05-20T12:00:16;2.17;;;1.52;;
19830;SDS011;10076;52.008;4.708;2023-05-20T12:02:41;2.15;;;1.55;;
19830;SDS011;10076;52.008;4.708;2023-05-20T12:05:07;1.55;;;1.45;;
19830;SDS011;10076;52.008;4.708;2023-05-20T12:07:32;4.93;;;2.05;;
19830;SDS011;10076;52.008;4.708;2023-05-20T12:09:58;2.67;;;1.58;;
19830;SDS011;10076;52.008;4.708;2023-05-20T12:12:23;4.30;;;2.20;;
19830;SDS011;10076;52.008;4.708;2023-05-20T12:14:49;2.13;;;1.77;;
19830;SDS011;10076;52.008;4.708;2023-05-20T12:17:15;2.15;;;1.52;;
19830;SDS011;10076;52.008;4.708;2023-05-20T12:19:40;2.00;;;1.80;;
19830;SDS011;10076;52.008;4.708;2023-05-20T12:22:05;2.17;;;1.63;;
19830;SDS011;10076;52.008;4.708;2023-05-20T12:24:30;2.88;;;1.60;;
19830;SDS011;10076;52.008;4.708;2023-05-20T12:26:56;2.35;;;1.67;;
19830;SDS011;10076;52.008;4.708;2023-05-20T12:29:22;3.83;;;1.85;;
19830;SDS011;10076;52.008;4.708;2023-05-20T12:31:47;2.10;;;1.65;;
19830;SDS011;10076;52.008;4.708;2023-05-20T12:34:12;1.83;;;1.40;;
19830;SDS011;10076;52.008;4.708;2023-05-20T12:36:38;2.08;;;1.60;;
19830;SDS011;10076;52.008;4.708;2023-05-20T12:39:03;4.97;;;1.90;;
19830;SDS011;10076;52.008;4.708;2023-05-20T12:41:29;2.47;;;1.60;;
19830;SDS011;10076;52.008;4.708;2023-05-20T12:43:54;2.08;;;1.80;;
19830;SDS011;10076;52.008;4.708;2023-05-20T12:46:19;2.50;;;1.60;;
19830;SDS011;10076;52.008;4.708;2023-05-20T12:48:45;2.90;;;1.67;;
19830;SDS011;10076;52.008;4.708;2023-05-20T12:51:10;6.40;;;2.10;;
19830;SDS011;10076;52.008;4.708;2023-05-20T12:53:35;3.05;;;1.90;;
19830;SDS011;10076;52.008;4.708;2023-05-20T12:56:01;4.25;;;2.08;;
19830;SDS011;10076;52.008;4.708;2023-05-20T12:58:26;3.13;;;1.45;;
19830;SDS011;10076;52.008;4.708;2023-05-20T13:00:51;2.85;;;2.08;;
19830;SDS011;10076;52.008;4.708;2023-05-20T13:03:17;2.97;;;1.73;;
19830;SDS011;10076;52.008;4.708;2023-05-20T13:05:42;2.53;;;1.95;;
19830;SDS011;10076;52.008;4.708;2023-05-20T13:08:07;2.92;;;1.83;;
19830;SDS011;10076;52.008;4.708;2023-05-20T13:10:34;2.30;;;1.63;;
19830;SDS011;10076;52.008;4.708;2023-05-20T13:12:59;2.50;;;1.65;;
19830;SDS011;10076;52.008;4.708;2023-05-20T13:15:25;3.15;;;1.80;;
19830;SDS011;10076;52.008;4.708;2023-05-20T13:17:50;2.97;;;1.48;;
19830;SDS011;10076;52.008;4.708;2023-05-20T13:20:15;3.13;;;2.13;;
19830;SDS011;10076;52.008;4.708;2023-05-20T13:22:40;2.80;;;1.70;;
19830;SDS011;10076;52.008;4.708;2023-05-20T13:25:06;2.50;;;1.80;;
19830;SDS011;10076;52.008;4.708;2023-05-20T13:27:32;3.85;;;1.65;;
19830;SDS011;10076;52.008;4.708;2023-05-20T13:29:58;2.50;;;1.90;;
19830;SDS011;10076;52.008;4.708;2023-05-20T13:32:25;2.78;;;1.70;;
19830;SDS011;10076;52.008;4.708;2023-05-20T13:34:51;4.45;;;2.35;;
19830;SDS011;10076;52.008;4.708;2023-05-20T13:37:16;2.20;;;1.80;;
19830;SDS011;10076;52.008;4.708;2023-05-20T13:39:41;2.83;;;1.80;;
19830;SDS011;10076;52.008;4.708;2023-05-20T13:42:07;4.47;;;2.55;;
19830;SDS011;10076;52.008;4.708;2023-05-20T13:44:32;2.70;;;1.60;;
19830;SDS011;10076;52.008;4.708;2023-05-20T13:46:57;2.15;;;1.50;;
19830;SDS011;10076;52.008;4.708;2023-05-20T13:49:22;2.75;;;1.80;;
19830;SDS011;10076;52.008;4.708;2023-05-20T13:51:49;2.47;;;1.90;;
19830;SDS011;10076;52.008;4.708;2023-05-20T13:54:14;2.45;;;1.80;;
19830;SDS011;10076;52.008;4.708;2023-05-20T13:56:40;3.70;;;1.92;;
19830;SDS011;10076;52.008;4.708;2023-05-20T13:59:05;2.72;;;1.65;;
19830;SDS011;10076;52.008;4.708;2023-05-20T14:01:31;1.75;;;1.50;;
19830;SDS011;10076;52.008;4.708;2023-05-20T14:03:57;2.30;;;1.88;;
19830;SDS011;10076;52.008;4.708;2023-05-20T14:06:22;4.90;;;1.90;;
19830;SDS011;10076;52.008;4.708;2023-05-20T14:08:48;2.80;;;1.80;;
19830;SDS011;10076;52.008;4.708;2023-05-20T14:11:14;2.72;;;1.80;;
19830;SDS011;10076;52.008;4.708;2023-05-20T14:13:39;3.33;;;1.90;;
19830;SDS011;10076;52.008;4.708;2023-05-20T14:16:05;3.70;;;1.60;;
19830;SDS011;10076;52.008;4.708;2023-05-20T14:18:30;2.88;;;1.48;;
19830;SDS011;10076;52.008;4.708;2023-05-20T14:20:56;3.70;;;1.50;;
19830;SDS011;10076;52.008;4.708;2023-05-20T14:23:21;3.38;;;1.50;;
19830;SDS011;10076;52.008;4.708;2023-05-20T14:25:46;2.40;;;1.52;;
19830;SDS011;10076;52.008;4.708;2023-05-20T14:28:12;1.85;;;1.50;;
19830;SDS011;10076;52.008;4.708;2023-05-20T14:30:37;1.80;;;1.60;;
19830;SDS011;10076;52.008;4.708;2023-05-20T14:33:02;1.92;;;1.35;;
19830;SDS011;10076;52.008;4.708;2023-05-20T14:35:28;3.00;;;1.55;;
19830;SDS011;10076;52.008;4.708;2023-05-20T14:37:53;2.95;;;1.33;;
19830;SDS011;10076;52.008;4.708;2023-05-20T14:40:18;3.42;;;1.38;;
19830;SDS011;10076;52.008;4.708;2023-05-20T14:42:44;1.75;;;1.40;;
19830;SDS011;10076;52.008;4.708;2023-05-20T14:45:10;2.42;;;1.50;;
19830;SDS011;10076;52.008;4.708;2023-05-20T14:47:35;2.33;;;1.55;;
19830;SDS011;10076;52.008;4.708;2023-05-20T14:50:01;6.07;;;1.48;;
19830;SDS011;10076;52.008;4.708;2023-05-20T14:52:26;1.35;;;1.25;;